Time;durP1;ratioP1;P1;durP2;ratioP2;P2;SDS_P1;SDS_P2;PMS_P1;PMS_P2;Temp;Humidity;BMP_temperature;BMP_pressure;BME280_temperature;BME280_humidity;BME280_pressure;Samples;Min_cycle;Max_cycle;Signal;HPM_P1;HPM_P2
2021/05/16 00:02:12;;;;;;;4.07;0.53;;;10.40;99.90;;;;;;5014356;28;20175;-71
2021/05/16 00:04:38;;;;;;;3.87;0.50;;;10.40;99.90;;;;;;5014584;28;20198;-70
2021/05/16 00:07:03;;;;;;;4.35;0.52;;;10.40;99.90;;;;;;5014861;28;20781;-71
2021/05/16 00:09:29;;;;;;;5.60;0.60;;;10.50;99.90;;;;;;5014747;28;20229;-70
2021/05/16 00:11:56;;;;;;;3.83;0.40;;;10.50;99.90;;;;;;5014546;28;20167;-71
2021/05/16 00:14:22;;;;;;;4.20;0.60;;;10.50;99.90;;;;;;5013699;28;20788;-70
2021/05/16 00:16:48;;;;;;;4.63;0.70;;;10.60;99.90;;;;;;5014191;28;20498;-71
2021/05/16 00:19:13;;;;;;;3.83;0.50;;;10.60;99.90;;;;;;5014002;28;20236;-71
2021/05/16 00:21:39;;;;;;;4.20;0.73;;;10.60;99.90;;;;;;5014196;28;20907;-72
2021/05/16 00:24:05;;;;;;;5.07;1.47;;;10.60;99.90;;;;;;5013655;28;20635;-72
2021/05/16 00:26:31;;;;;;;6.50;0.60;;;10.60;99.90;;;;;;5013672;28;20209;-71
2021/05/16 00:28:56;;;;;;;3.77;0.37;;;10.60;99.90;;;;;;5013964;28;20171;-71
2021/05/16 00:31:22;;;;;;;3.90;0.50;;;10.60;99.90;;;;;;5012727;28;20225;-72
2021/05/16 00:33:48;;;;;;;4.00;0.60;;;10.60;99.90;;;;;;5013586;28;20712;-73
2021/05/16 00:36:13;;;;;;;7.80;1.07;;;10.70;99.90;;;;;;5027426;28;20222;-72
2021/05/16 00:38:39;;;;;;;4.00;0.57;;;10.70;99.90;;;;;;5033508;28;20219;-71
2021/05/16 00:41:05;;;;;;;4.00;0.60;;;10.70;99.90;;;;;;5033594;28;20518;-70
2021/05/16 00:43:30;;;;;;;3.90;0.60;;;10.70;99.90;;;;;;5033304;28;20625;-71
2021/05/16 00:45:56;;;;;;;4.00;0.60;;;10.70;99.90;;;;;;5033357;28;20240;-71
2021/05/16 00:48:22;;;;;;;4.00;0.93;;;10.80;99.90;;;;;;5033427;28;20176;-71
2021/05/16 00:50:48;;;;;;;4.20;0.80;;;10.80;99.90;;;;;;5032974;28;20185;-70
2021/05/16 00:53:20;;;;;;;8.93;0.82;;;10.80;99.90;;;;;;5032950;28;20166;-71
2021/05/16 00:55:46;;;;;;;3.80;0.50;;;10.80;99.90;;;;;;5033367;28;20228;-70
2021/05/16 00:58:12;;;;;;;3.80;0.40;;;10.80;99.90;;;;;;5033374;28;20200;-71
2021/05/16 01:00:40;;;;;;;4.60;0.60;;;10.90;99.90;;;;;;5033403;28;20201;-70
2021/05/16 01:03:07;;;;;;;4.00;0.90;;;10.90;99.90;;;;;;5033091;28;20166;-71
2021/05/16 01:05:34;;;;;;;4.22;0.60;;;10.90;99.90;;;;;;5015029;28;20209;-70
2021/05/16 01:08:01;;;;;;;7.43;0.70;;;11.00;99.90;;;;;;5033141;28;20228;-72
2021/05/16 01:10:26;;;;;;;3.92;0.50;;;10.90;99.90;;;;;;5033214;28;20180;-71
2021/05/16 01:12:55;;;;;;;3.90;0.50;;;11.00;99.90;;;;;;5033222;28;20613;-71
2021/05/16 01:15:24;;;;;;;3.95;0.57;;;10.90;99.90;;;;;;5032653;28;20540;-70
2021/05/16 01:17:50;;;;;;;4.43;0.50;;;10.90;99.90;;;;;;5033157;28;20177;-70
2021/05/16 01:20:24;;;;;;;4.20;0.63;;;11.00;99.90;;;;;;5031473;28;20244;-71
2021/05/16 01:22:58;;;;;;;4.68;0.70;;;10.90;99.90;;;;;;5033358;28;20646;-70
2021/05/16 01:25:24;;;;;;;3.83;0.50;;;10.90;99.90;;;;;;5033014;28;20190;-70
2021/05/16 01:27:50;;;;;;;4.43;0.70;;;10.90;99.90;;;;;;5029781;28;20202;-69
2021/05/16 01:30:17;;;;;;;4.00;0.50;;;10.90;99.90;;;;;;5013274;28;20602;-72
2021/05/16 01:32:42;;;;;;;8.25;0.80;;;10.90;99.90;;;;;;5011986;28;20166;-71
2021/05/16 01:35:09;;;;;;;5.73;1.03;;;10.90;99.90;;;;;;5012875;28;20199;-71
2021/05/16 01:37:35;;;;;;;4.30;0.80;;;10.90;99.90;;;;;;5013253;28;20233;-72
2021/05/16 01:40:02;;;;;;;8.73;0.80;;;10.90;99.90;;;;;;5013369;28;20175;-70
2021/05/16 01:42:29;;;;;;;4.45;0.90;;;10.90;99.90;;;;;;5014786;28;20167;-70
2021/05/16 01:45:01;;;;;;;6.55;0.98;;;10.90;99.90;;;;;;5030712;28;20687;-71
2021/05/16 01:47:27;;;;;;;4.10;0.70;;;10.90;99.90;;;;;;5032881;28;20271;-70
2021/05/16 01:49:58;;;;;;;4.20;0.80;;;10.90;99.90;;;;;;5032897;28;20543;-72
2021/05/16 01:52:30;;;;;;;3.90;0.63;;;10.90;99.90;;;;;;5036445;28;20454;-71
2021/05/16 01:54:56;;;;;;;3.90;0.50;;;10.90;99.90;;;;;;5036030;28;20679;-72
2021/05/16 01:57:22;;;;;;;3.80;0.50;;;10.90;99.90;;;;;;5033637;28;20264;-71
2021/05/16 01:59:49;;;;;;;4.20;0.60;;;10.80;99.90;;;;;;5016639;28;20524;-71
2021/05/16 02:02:16;;;;;;;3.78;0.40;;;10.80;99.90;;;;;;5016577;28;20182;-71
2021/05/16 02:04:42;;;;;;;4.00;0.70;;;10.90;99.90;;;;;;5017455;28;20220;-71
2021/05/16 02:07:10;;;;;;;4.40;0.60;;;10.90;99.90;;;;;;5036266;28;20622;-71
2021/05/16 02:09:37;;;;;;;5.10;2.65;;;10.90;99.90;;;;;;5036280;28;20418;-72
2021/05/16 02:12:03;;;;;;;4.00;0.60;;;10.90;99.90;;;;;;5036432;28;20628;-72
2021/05/16 02:14:30;;;;;;;3.90;0.63;;;10.80;99.90;;;;;;5034843;28;20556;-72
2021/05/16 02:16:58;;;;;;;3.92;0.60;;;10.90;99.90;;;;;;5016460;28;20178;-72
2021/05/16 02:19:24;;;;;;;4.10;0.60;;;10.90;99.90;;;;;;5016303;28;20664;-72
2021/05/16 02:21:50;;;;;;;4.00;0.70;;;10.90;99.90;;;;;;5016361;28;20572;-70
2021/05/16 02:24:16;;;;;;;4.40;0.80;;;10.90;99.90;;;;;;5015605;28;20285;-71
2021/05/16 02:26:42;;;;;;;3.95;0.65;;;10.90;99.90;;;;;;5015904;28;20289;-71
2021/05/16 02:29:09;;;;;;;3.93;0.50;;;10.90;99.90;;;;;;5015995;28;20262;-71
2021/05/16 02:31:35;;;;;;;4.10;0.60;;;11.00;99.90;;;;;;5016232;28;20421;-71
2021/05/16 02:34:02;;;;;;;3.90;0.43;;;11.00;99.90;;;;;;5015501;28;20305;-72
2021/05/16 02:36:28;;;;;;;4.40;0.60;;;11.00;99.90;;;;;;5016006;28;20174;-71
2021/05/16 02:38:54;;;;;;;4.07;0.60;;;11.00;99.90;;;;;;5015935;28;20225;-70
2021/05/16 02:41:20;;;;;;;4.00;0.60;;;11.00;99.90;;;;;;5015738;28;20633;-71
2021/05/16 02:43:46;;;;;;;4.70;1.20;;;11.00;99.90;;;;;;5026033;28;20625;-71
2021/05/16 02:46:11;;;;;;;4.50;0.80;;;11.00;99.90;;;;;;5035400;28;20543;-71
2021/05/16 02:48:37;;;;;;;4.40;0.70;;;11.00;99.90;;;;;;5035552;28;20521;-70
2021/05/16 02:51:03;;;;;;;4.10;0.60;;;11.00;99.90;;;;;;5035381;28;20686;-71
2021/05/16 02:53:29;;;;;;;4.88;0.85;;;11.00;99.90;;;;;;5035080;28;20200;-72
2021/05/16 02:55:54;;;;;;;4.17;0.60;;;11.00;99.90;;;;;;5035593;28;20629;-70
2021/05/16 02:58:20;;;;;;;4.03;0.43;;;11.00;99.90;;;;;;5026688;28;20175;-71
2021/05/16 03:00:46;;;;;;;5.23;0.60;;;10.90;99.90;;;;;;5016496;28;20257;-70
2021/05/16 03:03:11;;;;;;;4.67;1.33;;;11.00;99.90;;;;;;5015021;28;20565;-71
2021/05/16 03:05:37;;;;;;;4.20;0.53;;;10.90;99.90;;;;;;5016124;28;20642;-70
2021/05/16 03:08:03;;;;;;;4.47;0.63;;;10.90;99.90;;;;;;5015299;28;20265;-71
2021/05/16 03:10:29;;;;;;;4.23;0.60;;;10.90;99.90;;;;;;5015423;28;20171;-72
2021/05/16 03:12:54;;;;;;;4.40;0.70;;;10.90;99.90;;;;;;5015256;28;20445;-72
2021/05/16 03:15:20;;;;;;;4.37;0.60;;;10.90;99.90;;;;;;5014761;28;20190;-72
2021/05/16 03:17:46;;;;;;;6.60;1.47;;;10.80;99.90;;;;;;5015195;28;20186;-71
2021/05/16 03:20:12;;;;;;;4.70;0.80;;;10.80;99.90;;;;;;5015246;28;20198;-71
2021/05/16 03:22:38;;;;;;;6.07;1.15;;;10.70;99.90;;;;;;5032943;28;20174;-70
2021/05/16 03:25:05;;;;;;;8.10;1.23;;;10.70;99.90;;;;;;5029585;28;20724;-72
2021/05/16 03:27:31;;;;;;;4.40;0.70;;;10.70;99.90;;;;;;5014745;28;20245;-72
2021/05/16 03:29:56;;;;;;;4.40;0.60;;;10.70;99.90;;;;;;5014984;28;20179;-72
2021/05/16 03:32:22;;;;;;;4.30;0.70;;;10.60;99.90;;;;;;5014995;28;20600;-71
2021/05/16 03:34:48;;;;;;;4.60;0.70;;;10.60;99.90;;;;;;5014330;28;20261;-72
2021/05/16 03:37:13;;;;;;;4.30;0.40;;;10.60;99.90;;;;;;5031413;28;20185;-71
2021/05/16 03:39:39;;;;;;;4.50;0.80;;;10.50;99.90;;;;;;5034122;28;20263;-72
2021/05/16 03:42:06;;;;;;;5.00;0.83;;;10.50;99.90;;;;;;5034512;28;20640;-72
2021/05/16 03:44:32;;;;;;;6.05;1.33;;;10.50;99.90;;;;;;5033986;28;20424;-71
2021/05/16 03:46:58;;;;;;;4.70;1.03;;;10.50;99.90;;;;;;5034377;28;20193;-71
2021/05/16 03:49:24;;;;;;;4.70;0.93;;;10.60;99.90;;;;;;5034076;28;20413;-72
2021/05/16 03:51:49;;;;;;;4.60;0.70;;;10.50;99.90;;;;;;5034115;28;20537;-71
2021/05/16 03:54:15;;;;;;;4.40;0.70;;;10.60;99.90;;;;;;5033769;28;20613;-72
2021/05/16 03:56:42;;;;;;;4.45;0.55;;;10.60;99.90;;;;;;5034331;28;20174;-71
2021/05/16 03:59:07;;;;;;;4.40;0.60;;;10.60;99.90;;;;;;5034101;28;20202;-72
2021/05/16 04:01:33;;;;;;;4.50;0.97;;;10.60;99.90;;;;;;5034163;28;20213;-72
2021/05/16 04:03:59;;;;;;;4.80;0.90;;;10.60;99.90;;;;;;5033697;28;20170;-72
2021/05/16 04:06:25;;;;;;;4.50;0.68;;;10.70;99.90;;;;;;5014771;28;20203;-71
2021/05/16 04:08:51;;;;;;;5.63;0.73;;;10.70;99.90;;;;;;5014231;28;20644;-72
2021/05/16 04:11:16;;;;;;;5.23;0.60;;;10.70;99.90;;;;;;5014386;28;20194;-71
2021/05/16 04:13:42;;;;;;;5.93;0.90;;;10.70;99.90;;;;;;5013424;28;20177;-71
2021/05/16 04:16:08;;;;;;;4.87;0.87;;;10.70;99.90;;;;;;5014174;28;20186;-72
2021/05/16 04:18:34;;;;;;;4.40;0.60;;;10.70;99.90;;;;;;5014266;28;20163;-71
2021/05/16 04:21:01;;;;;;;4.43;0.67;;;10.70;99.90;;;;;;5014013;28;20409;-73
2021/05/16 04:23:27;;;;;;;5.05;0.73;;;10.70;99.90;;;;;;5013565;28;20190;-71
2021/05/16 04:25:53;;;;;;;4.80;1.00;;;10.70;99.90;;;;;;5015500;28;20718;-71
2021/05/16 04:28:18;;;;;;;5.17;1.43;;;10.60;99.90;;;;;;5016380;28;20232;-71
2021/05/16 04:30:44;;;;;;;4.87;0.80;;;10.60;99.90;;;;;;5033728;28;20170;-71
2021/05/16 04:33:10;;;;;;;7.80;0.90;;;10.50;99.90;;;;;;5026275;28;20182;-70
2021/05/16 04:35:35;;;;;;;4.67;0.77;;;10.50;99.90;;;;;;5013739;28;20198;-70
2021/05/16 04:38:01;;;;;;;4.87;0.87;;;10.40;99.90;;;;;;5013786;28;20167;-71
2021/05/16 04:40:27;;;;;;;4.40;0.50;;;10.40;99.90;;;;;;5013800;28;20173;-69
2021/05/16 04:42:52;;;;;;;4.80;0.67;;;10.40;99.90;;;;;;5013749;28;20190;-70
2021/05/16 04:45:19;;;;;;;4.60;0.60;;;10.40;99.90;;;;;;5013320;28;20190;-71
2021/05/16 04:47:45;;;;;;;4.80;0.68;;;10.30;99.90;;;;;;5013789;28;20531;-71
2021/05/16 04:50:13;;;;;;;4.60;0.60;;;10.30;99.90;;;;;;5013803;28;20197;-70
2021/05/16 04:52:38;;;;;;;5.15;0.63;;;10.40;99.90;;;;;;5012375;28;20258;-71
2021/05/16 04:55:05;;;;;;;4.50;0.60;;;10.50;99.90;;;;;;5022448;28;20757;-70
2021/05/16 04:57:31;;;;;;;4.55;0.65;;;10.50;99.90;;;;;;5033517;28;20170;-69
2021/05/16 04:59:57;;;;;;;5.90;0.70;;;10.60;99.90;;;;;;5033735;28;20224;-72
2021/05/16 05:02:22;;;;;;;4.40;0.60;;;10.60;99.90;;;;;;5033051;28;20173;-70
2021/05/16 05:04:48;;;;;;;4.40;0.50;;;10.60;99.90;;;;;;5032871;28;20545;-71
2021/05/16 05:07:15;;;;;;;4.80;0.87;;;10.70;99.90;;;;;;5033072;28;20239;-68
2021/05/16 05:09:40;;;;;;;4.40;0.50;;;10.70;99.90;;;;;;5033243;28;20189;-72
2021/05/16 05:12:06;;;;;;;4.50;0.50;;;10.70;99.90;;;;;;5033327;28;20170;-69
2021/05/16 05:14:32;;;;;;;5.25;0.70;;;10.80;99.90;;;;;;5032657;28;20193;-71
2021/05/16 05:16:58;;;;;;;4.40;0.47;;;10.90;99.90;;;;;;5033249;28;20178;-72
2021/05/16 05:19:25;;;;;;;4.70;0.70;;;10.90;99.90;;;;;;5014017;28;20183;-71
2021/05/16 05:21:51;;;;;;;5.38;0.80;;;10.90;99.90;;;;;;5013708;28;20612;-71
2021/05/16 05:24:17;;;;;;;4.67;0.70;;;11.00;99.90;;;;;;5012883;28;20276;-69
2021/05/16 05:26:42;;;;;;;5.00;0.90;;;11.10;99.90;;;;;;5015498;28;20199;-71
2021/05/16 05:29:08;;;;;;;4.70;0.60;;;11.20;99.90;;;;;;5017324;28;20214;-71
2021/05/16 05:31:34;;;;;;;5.20;0.80;;;11.40;99.90;;;;;;5017129;28;20645;-71
2021/05/16 05:33:59;;;;;;;4.80;0.60;;;11.50;99.90;;;;;;5016725;28;20237;-71
2021/05/16 05:36:29;;;;;;;4.80;0.70;;;11.60;99.90;;;;;;5017215;28;20420;-71
2021/05/16 05:38:55;;;;;;;4.80;0.60;;;11.70;99.90;;;;;;5016963;28;20621;-69
2021/05/16 05:41:21;;;;;;;4.72;0.63;;;11.80;99.90;;;;;;5018572;28;20175;-70
2021/05/16 05:43:47;;;;;;;4.70;0.60;;;11.90;99.90;;;;;;5036023;28;20169;-70
2021/05/16 05:46:12;;;;;;;5.50;1.27;;;12.00;99.90;;;;;;5036615;28;20190;-69
2021/05/16 05:48:39;;;;;;;8.30;0.70;;;12.00;99.90;;;;;;5036540;28;20187;-70
2021/05/16 05:51:05;;;;;;;4.60;0.40;;;12.00;99.90;;;;;;5036251;28;20548;-71
2021/05/16 05:53:30;;;;;;;4.90;0.67;;;12.00;99.90;;;;;;5036478;28;20232;-69
2021/05/16 05:55:56;;;;;;;5.40;0.73;;;12.10;99.90;;;;;;5036979;28;20417;-71
2021/05/16 05:58:21;;;;;;;4.90;0.60;;;12.00;99.90;;;;;;5036684;28;20219;-71
2021/05/16 06:00:47;;;;;;;5.47;0.80;;;11.90;99.90;;;;;;5036657;28;20575;-70
2021/05/16 06:03:13;;;;;;;5.37;0.50;;;11.90;99.90;;;;;;5036045;28;20623;-70
2021/05/16 06:05:38;;;;;;;5.00;0.87;;;11.80;99.90;;;;;;5018007;28;20556;-71
2021/05/16 06:08:04;;;;;;;5.10;1.00;;;11.60;99.90;;;;;;5016256;28;20210;-70
2021/05/16 06:10:30;;;;;;;6.13;0.73;;;11.50;99.90;;;;;;5016291;28;20198;-71
2021/05/16 06:12:55;;;;;;;5.10;1.00;;;11.40;99.90;;;;;;5016241;28;20398;-70
2021/05/16 06:15:24;;;;;;;4.90;0.70;;;11.40;99.90;;;;;;5015792;28;20596;-71
2021/05/16 06:17:50;;;;;;;4.70;0.60;;;11.40;99.90;;;;;;5016046;28;20163;-71
2021/05/16 06:20:16;;;;;;;5.00;0.90;;;11.40;99.90;;;;;;5022044;28;20232;-72
2021/05/16 06:22:41;;;;;;;5.20;1.17;;;11.50;99.90;;;;;;5036015;28;20174;-71
2021/05/16 06:25:07;;;;;;;4.73;0.70;;;11.70;99.90;;;;;;5035406;28;20460;-72
2021/05/16 06:27:33;;;;;;;4.90;0.63;;;11.90;99.90;;;;;;5035543;28;20218;-71
2021/05/16 06:29:59;;;;;;;7.10;0.60;;;12.10;99.90;;;;;;5035915;28;20629;-72
2021/05/16 06:32:25;;;;;;;5.00;0.93;;;12.40;99.90;;;;;;5035660;28;20398;-69
2021/05/16 06:34:51;;;;;;;4.70;0.60;;;12.80;99.90;;;;;;5020002;28;20940;-69
2021/05/16 06:37:16;;;;;;;4.90;0.60;;;13.00;99.90;;;;;;5015266;28;20170;-69
2021/05/16 06:39:42;;;;;;;4.70;0.70;;;13.10;99.90;;;;;;5015997;28;20177;-71
2021/05/16 06:42:07;;;;;;;5.40;0.90;;;13.10;99.90;;;;;;5020534;28;20179;-71
2021/05/16 06:44:33;;;;;;;5.50;0.80;;;13.30;99.90;;;;;;5034867;28;20247;-71
2021/05/16 06:47:02;;;;;;;6.07;1.20;;;13.50;99.90;;;;;;5035367;28;20660;-71
2021/05/16 06:49:28;;;;;;;5.10;0.80;;;13.70;99.90;;;;;;5034553;28;20253;-72
2021/05/16 06:51:53;;;;;;;4.80;0.67;;;13.80;99.90;;;;;;5034894;28;20859;-71
2021/05/16 06:54:19;;;;;;;4.53;0.53;;;14.10;99.90;;;;;;5034430;28;20192;-70
2021/05/16 06:56:45;;;;;;;5.60;1.73;;;14.40;99.90;;;;;;5013018;28;20565;-67
2021/05/16 06:59:10;;;;;;;5.40;1.00;;;14.70;99.90;;;;;;5015342;28;20174;-66
2021/05/16 07:01:37;;;;;;;4.70;1.00;;;15.00;99.90;;;;;;5015190;28;20167;-67
2021/05/16 07:04:03;;;;;;;4.10;0.60;;;15.10;99.90;;;;;;5014973;28;20502;-66
2021/05/16 07:06:28;;;;;;;4.13;0.67;;;15.30;99.90;;;;;;4997556;28;20406;-66
2021/05/16 07:08:54;;;;;;;4.60;0.80;;;15.40;99.90;;;;;;5015409;28;20402;-69
2021/05/16 07:11:19;;;;;;;4.10;0.40;;;15.60;99.90;;;;;;5017607;28;20174;-69
2021/05/16 07:13:45;;;;;;;4.10;0.60;;;15.80;99.90;;;;;;5034699;28;20644;-69
2021/05/16 07:16:11;;;;;;;4.43;0.90;;;15.90;99.90;;;;;;5017105;28;20674;-71
2021/05/16 07:18:37;;;;;;;6.00;0.87;;;16.00;99.90;;;;;;5034720;28;20633;-70
2021/05/16 07:21:02;;;;;;;4.07;0.60;;;16.20;99.90;;;;;;5035179;28;20195;-71
2021/05/16 07:23:28;;;;;;;3.90;0.60;;;16.50;99.90;;;;;;5034409;28;20192;-69
2021/05/16 07:25:54;;;;;;;4.43;0.60;;;16.70;99.90;;;;;;5033064;28;20203;-70
2021/05/16 07:28:19;;;;;;;5.27;0.70;;;16.80;99.90;;;;;;5014669;28;20204;-71
2021/05/16 07:30:45;;;;;;;4.00;0.60;;;17.20;99.90;;;;;;5024769;28;20515;-70
2021/05/16 07:33:11;;;;;;;4.00;0.57;;;17.60;99.90;;;;;;5034399;28;20185;-70
2021/05/16 07:35:37;;;;;;;4.27;0.60;;;17.60;99.50;;;;;;5034452;28;20288;-70
2021/05/16 07:38:03;;;;;;;3.60;0.50;;;17.40;99.90;;;;;;5034483;28;20169;-71
2021/05/16 07:40:32;;;;;;;5.70;0.50;;;17.10;99.90;;;;;;5034247;28;20629;-71
2021/05/16 07:43:16;;;;;;;3.80;0.60;;;16.90;99.90;;;;;;5034273;28;20502;-72
2021/05/16 07:45:45;;;;;;;3.77;0.80;;;16.60;99.90;;;;;;5034136;28;20473;-71
2021/05/16 07:48:11;;;;;;;4.67;1.30;;;16.30;99.90;;;;;;5033642;28;20448;-70
2021/05/16 07:50:36;;;;;;;4.83;0.80;;;16.00;99.90;;;;;;5014784;28;20427;-70
2021/05/16 07:53:05;;;;;;;4.90;0.57;;;15.80;99.90;;;;;;5033791;28;20902;-71
2021/05/16 07:55:31;;;;;;;3.80;0.67;;;15.60;99.90;;;;;;5033882;28;20648;-71
2021/05/16 07:57:57;;;;;;;3.90;0.80;;;15.50;99.90;;;;;;5034062;28;20409;-71
2021/05/16 08:00:23;;;;;;;3.70;0.40;;;15.50;99.90;;;;;;5032220;28;20501;-69
2021/05/16 08:02:48;;;;;;;3.93;0.57;;;15.50;99.90;;;;;;5033851;28;20540;-70
2021/05/16 08:05:15;;;;;;;3.87;0.60;;;15.50;99.90;;;;;;5031436;28;20437;-70
2021/05/16 08:07:41;;;;;;;3.80;0.50;;;15.80;99.90;;;;;;5032078;28;20216;-69
2021/05/16 08:10:07;;;;;;;4.00;0.67;;;16.20;99.90;;;;;;5013994;28;20770;-68
2021/05/16 08:12:34;;;;;;;4.50;0.70;;;16.80;99.90;;;;;;5014218;28;20173;-69
2021/05/16 08:15:00;;;;;;;5.60;1.10;;;18.00;99.90;;;;;;5041260;28;20440;-71
2021/05/16 08:17:25;;;;;;;4.10;0.73;;;19.50;97.30;;;;;;5034024;28;20430;-70
2021/05/16 08:19:51;;;;;;;3.90;0.80;;;20.00;94.40;;;;;;5039720;28;20431;-71
2021/05/16 08:22:17;;;;;;;3.70;0.70;;;19.80;93.30;;;;;;5014032;28;20175;-70
2021/05/16 08:24:42;;;;;;;4.97;1.87;;;19.10;95.00;;;;;;5013434;28;20187;-69
2021/05/16 08:27:08;;;;;;;5.57;0.90;;;18.10;97.40;;;;;;5023223;28;20201;-71
2021/05/16 08:29:36;;;;;;;4.43;0.93;;;17.30;98.80;;;;;;5033829;28;20174;-70
2021/05/16 08:32:06;;;;;;;4.53;1.10;;;16.70;99.90;;;;;;5033663;28;20408;-71
2021/05/16 08:34:32;;;;;;;3.90;0.97;;;16.20;99.90;;;;;;5026438;28;20779;-72
2021/05/16 08:36:58;;;;;;;3.70;0.70;;;15.80;99.90;;;;;;5027731;28;20869;-71
2021/05/16 08:39:24;;;;;;;4.10;0.90;;;15.60;99.90;;;;;;5054086;28;20438;-70
2021/05/16 08:41:50;;;;;;;4.00;0.60;;;15.60;99.90;;;;;;5054429;28;20165;-71
2021/05/16 08:44:17;;;;;;;4.10;0.70;;;15.60;99.90;;;;;;5037131;28;20869;-72
2021/05/16 08:46:43;;;;;;;3.97;0.70;;;15.90;99.90;;;;;;5034429;28;20192;-71
2021/05/16 08:49:09;;;;;;;4.17;0.67;;;16.30;99.90;;;;;;5033353;28;20412;-72
2021/05/16 08:51:35;;;;;;;3.70;0.70;;;17.40;99.90;;;;;;5033041;28;20557;-72
2021/05/16 08:54:01;;;;;;;4.10;0.70;;;18.70;99.90;;;;;;5032688;28;20408;-70
2021/05/16 08:56:26;;;;;;;3.60;0.60;;;20.40;99.30;;;;;;5033118;28;20225;-73
2021/05/16 08:58:52;;;;;;;5.03;1.80;;;22.00;96.50;;;;;;5033980;28;20429;-69
2021/05/16 09:01:22;;;;;;;4.70;1.17;;;23.40;94.20;;;;;;5036735;28;20175;-68
2021/05/16 09:03:48;;;;;;;4.37;0.87;;;24.60;90.80;;;;;;5019212;28;20620;-72
2021/05/16 09:06:15;;;;;;;3.87;1.10;;;25.70;88.50;;;;;;5036871;28;20421;-70
2021/05/16 09:08:41;;;;;;;3.87;0.70;;;26.70;82.90;;;;;;5037150;28;20431;-70
2021/05/16 09:11:07;;;;;;;4.07;1.30;;;26.90;75.60;;;;;;5038391;28;20430;-72
2021/05/16 09:13:35;;;;;;;3.57;1.00;;;27.30;77.00;;;;;;5020031;28;20793;-72
2021/05/16 09:16:17;;;;;;;3.20;0.90;;;27.90;76.40;;;;;;5050133;28;20204;-73
2021/05/16 09:18:53;;;;;;;2.90;0.80;;;28.40;70.40;;;;;;5054854;28;20423;-70
2021/05/16 09:21:27;;;;;;;2.87;0.93;;;29.00;70.30;;;;;;5055247;28;20517;-71
2021/05/16 09:24:02;;;;;;;3.00;0.90;;;29.00;67.10;;;;;;5038464;28;20431;-71
2021/05/16 09:26:51;;;;;;;3.23;0.80;;;28.40;64.00;;;;;;5036213;28;20470;-71
2021/05/16 09:29:49;;;;;;;2.73;0.80;;;28.10;63.20;;;;;;5038434;28;20407;-70
2021/05/16 09:32:18;;;;;;;5.80;1.40;;;27.50;60.00;;;;;;5040705;28;20551;-69
2021/05/16 09:34:44;;;;;;;4.20;1.43;;;26.80;62.00;;;;;;5036266;28;20417;-70
2021/05/16 09:37:10;;;;;;;3.30;0.50;;;25.80;67.80;;;;;;5036477;28;20425;-70
2021/05/16 09:39:36;;;;;;;3.07;0.97;;;25.00;69.10;;;;;;5036240;28;20211;-71
2021/05/16 09:42:13;;;;;;;3.80;1.30;;;24.00;73.20;;;;;;5047406;28;20746;-71
2021/05/16 09:44:45;;;;;;;3.30;0.93;;;23.50;71.40;;;;;;5054060;28;20443;-71
2021/05/16 09:47:26;;;;;;;3.60;0.90;;;22.90;68.90;;;;;;5044476;28;20447;-71
2021/05/16 09:49:57;;;;;;;3.00;0.80;;;22.20;69.90;;;;;;5036246;28;20413;-71
2021/05/16 09:52:28;;;;;;;3.13;0.70;;;22.00;69.60;;;;;;5049438;28;20411;-71
2021/05/16 09:55:01;;;;;;;3.33;1.00;;;22.00;71.50;;;;;;5038141;28;20445;-73
2021/05/16 09:57:38;;;;;;;3.20;1.27;;;22.40;71.50;;;;;;5054532;28;20778;-70
2021/05/16 10:00:08;;;;;;;2.80;0.80;;;22.50;68.30;;;;;;5042547;28;20947;-72
2021/05/16 10:02:34;;;;;;;3.93;0.87;;;22.70;69.70;;;;;;5018357;28;20476;-70
2021/05/16 10:05:03;;;;;;;3.73;0.60;;;22.80;69.90;;;;;;5039885;28;20442;-69
2021/05/16 10:07:30;;;;;;;4.20;0.73;;;22.50;71.60;;;;;;5036273;28;20560;-70
2021/05/16 10:09:57;;;;;;;3.00;0.50;;;22.50;72.90;;;;;;5046013;28;20414;-71
2021/05/16 10:12:23;;;;;;;2.93;0.70;;;22.80;75.00;;;;;;5017306;28;20933;-71
2021/05/16 10:15:23;;;;;;;3.37;0.70;;;22.90;68.80;;;;;;5043207;28;20520;-70
2021/05/16 10:17:52;;;;;;;2.90;0.50;;;23.20;67.70;;;;;;5043790;28;20520;-70
2021/05/16 10:20:21;;;;;;;3.60;0.90;;;23.30;66.60;;;;;;5044822;28;20396;-70
2021/05/16 10:23:01;;;;;;;2.80;0.50;;;23.10;65.70;;;;;;5035729;28;20830;-68
2021/05/16 10:25:38;;;;;;;2.90;0.73;;;22.80;65.90;;;;;;5037642;28;20906;-70
2021/05/16 10:28:04;;;;;;;2.70;0.60;;;22.70;67.90;;;;;;5034861;28;20463;-69
2021/05/16 10:30:30;;;;;;;3.20;0.70;;;22.90;70.50;;;;;;5047255;28;20413;-69
2021/05/16 10:32:55;;;;;;;2.90;0.60;;;23.20;66.30;;;;;;5055548;28;20412;-69
2021/05/16 10:35:22;;;;;;;3.03;0.57;;;23.80;64.20;;;;;;5038214;28;20875;-68
2021/05/16 10:37:55;;;;;;;3.90;0.80;;;24.10;62.60;;;;;;5036498;28;20173;-71
2021/05/16 10:40:23;;;;;;;2.70;0.47;;;24.10;63.00;;;;;;5041085;28;20957;-70
2021/05/16 10:43:26;;;;;;;3.50;1.00;;;23.70;65.50;;;;;;5035663;28;20390;-69
2021/05/16 10:45:52;;;;;;;3.40;1.07;;;23.30;64.90;;;;;;5036573;28;20592;-69
2021/05/16 10:48:20;;;;;;;3.30;0.67;;;23.00;66.50;;;;;;5044204;28;20456;-71
2021/05/16 10:50:50;;;;;;;3.37;1.00;;;22.60;68.40;;;;;;5052149;28;20456;-69
2021/05/16 10:53:17;;;;;;;3.60;0.87;;;22.40;68.70;;;;;;5032592;28;20531;-70
2021/05/16 10:55:49;;;;;;;3.03;0.80;;;22.00;69.80;;;;;;5046155;28;20437;-70
2021/05/16 10:58:35;;;;;;;2.83;0.83;;;22.30;71.70;;;;;;5036960;28;20409;-69
2021/05/16 11:01:13;;;;;;;3.30;0.90;;;22.50;70.20;;;;;;5055274;28;20404;-74
2021/05/16 11:03:49;;;;;;;2.80;0.60;;;22.60;68.80;;;;;;5047782;28;20493;-69
2021/05/16 11:06:20;;;;;;;2.60;0.60;;;22.90;63.80;;;;;;5054922;28;20419;-70
2021/05/16 11:08:45;;;;;;;3.43;1.43;;;23.20;65.40;;;;;;5050201;28;20942;-69
2021/05/16 11:11:30;;;;;;;3.57;1.00;;;23.20;63.30;;;;;;5017149;28;20437;-71
2021/05/16 11:13:56;;;;;;;2.70;0.50;;;22.90;61.80;;;;;;5021491;28;20675;-71
2021/05/16 11:16:21;;;;;;;2.80;0.50;;;22.60;66.00;;;;;;5020357;28;20430;-72
2021/05/16 11:18:47;;;;;;;3.77;0.93;;;22.40;66.40;;;;;;5015114;28;20510;-73
2021/05/16 11:21:13;;;;;;;2.80;0.80;;;22.40;65.70;;;;;;5023209;28;20208;-74
2021/05/16 11:23:47;;;;;;;3.17;0.63;;;22.40;65.40;;;;;;5022467;28;20541;-70
2021/05/16 11:26:15;;;;;;;3.90;1.00;;;22.40;65.70;;;;;;5042642;28;20451;-70
2021/05/16 11:28:50;;;;;;;3.10;0.70;;;22.40;63.90;;;;;;5052787;28;20429;-69
2021/05/16 11:31:20;;;;;;;2.70;0.60;;;22.40;65.00;;;;;;5034639;28;20755;-70
2021/05/16 11:33:51;;;;;;;3.00;0.67;;;22.20;63.50;;;;;;5035382;28;20413;-70
2021/05/16 11:36:39;;;;;;;2.97;0.70;;;21.80;64.10;;;;;;5037955;28;20448;-71
2021/05/16 11:39:08;;;;;;;3.00;0.90;;;21.50;65.30;;;;;;5021065;28;20440;-71
2021/05/16 11:41:38;;;;;;;2.90;0.63;;;21.30;66.40;;;;;;5054295;28;20411;-72
2021/05/16 11:44:06;;;;;;;3.87;0.80;;;21.10;67.50;;;;;;5029883;28;20424;-70
2021/05/16 11:46:43;;;;;;;2.60;0.50;;;21.20;70.00;;;;;;5036383;28;20420;-72
2021/05/16 11:49:12;;;;;;;2.80;0.60;;;21.30;68.70;;;;;;5050214;28;20444;-72
2021/05/16 11:51:38;;;;;;;3.53;0.83;;;21.40;69.00;;;;;;5016499;28;20408;-70
2021/05/16 11:54:10;;;;;;;6.60;1.30;;;21.30;67.50;;;;;;5035963;28;20424;-73
2021/05/16 11:56:47;;;;;;;3.27;1.27;;;21.10;68.50;;;;;;5035739;28;20426;-71
2021/05/16 11:59:13;;;;;;;3.47;0.60;;;21.10;68.90;;;;;;5037895;28;20426;-72
2021/05/16 12:01:41;;;;;;;3.30;0.60;;;20.90;65.80;;;;;;5053940;28;20401;-72
2021/05/16 12:04:16;;;;;;;3.00;0.90;;;20.60;66.00;;;;;;5022509;28;20429;-70
2021/05/16 12:06:52;;;;;;;2.70;0.57;;;20.30;68.70;;;;;;5053846;28;20597;-69
2021/05/16 12:09:20;;;;;;;4.23;0.60;;;20.10;68.50;;;;;;5050330;28;20424;-69
2021/05/16 12:11:48;;;;;;;2.70;0.70;;;19.90;66.60;;;;;;5033940;28;20420;-71
2021/05/16 12:14:19;;;;;;;3.23;0.90;;;19.90;67.50;;;;;;5035481;28;20515;-69
2021/05/16 12:16:57;;;;;;;2.90;0.90;;;19.90;67.50;;;;;;5053807;28;20491;-70
2021/05/16 12:19:30;;;;;;;2.70;0.70;;;20.00;66.80;;;;;;5032868;28;20814;-71
2021/05/16 12:22:01;;;;;;;2.90;0.60;;;20.00;73.20;;;;;;5014211;28;20409;-71
2021/05/16 12:24:36;;;;;;;2.60;0.50;;;20.10;72.20;;;;;;5021521;28;20435;-72
2021/05/16 12:27:04;;;;;;;5.80;0.73;;;20.10;70.50;;;;;;5051623;28;20518;-71
2021/05/16 12:29:30;;;;;;;3.83;1.53;;;20.20;70.90;;;;;;5051840;28;20454;-71
2021/05/16 12:31:56;;;;;;;2.90;0.50;;;20.40;71.50;;;;;;5050830;28;20411;-72
2021/05/16 12:34:24;;;;;;;3.03;0.80;;;20.40;69.20;;;;;;5032699;28;20522;-71
2021/05/16 12:36:51;;;;;;;2.70;0.57;;;20.40;67.90;;;;;;5033697;28;20915;-71
2021/05/16 12:39:36;;;;;;;3.30;1.03;;;20.20;69.20;;;;;;5033411;28;20413;-72
2021/05/16 12:42:03;;;;;;;2.80;0.70;;;20.20;69.50;;;;;;5050071;28;20451;-72
2021/05/16 12:44:29;;;;;;;3.00;0.60;;;20.30;70.90;;;;;;5052739;28;20782;-69
2021/05/16 12:46:57;;;;;;;4.37;0.90;;;20.30;72.30;;;;;;5035937;28;20453;-70
2021/05/16 12:49:26;;;;;;;3.00;0.80;;;20.30;72.60;;;;;;5033789;28;20478;-71
2021/05/16 12:51:59;;;;;;;5.17;1.53;;;20.40;72.70;;;;;;5048775;28;20416;-69